Who's Online

We have 5 guests online

GK Weather

An error occured during parsing XML data. Please try again.

Aviation WX

[source: ADDS]
METAR
KIAD 281052Z 32014G25KT 10SM FEW060 SCT090 M02/M11 A2995 RMK AO2 SLP143 T10221111 =
TAF
KIAD 280857Z 2809/2912 34010KT P6SM BKN080 FM281400 32014G23KT P6SM BKN060 FM282200 31012KT P6SM SCT060 FM290100 32008KT P6SM FEW250 =
SR / SS: 00:42 / 13:11 UTC (Washington-Dulles 2015-03-28)

JoomlaWatch Agent

Home Links
We are regularly out on the Web. When we find a great site we list it.